Terminal Aerodrome Forecast
Issued by NWS

Home | Current Version | Previous Version | Text Only | Print | Product List | Glossary On
Versions: 1 2 3 4 5 6 7 8 9 10 11 12 13 14 15 16 17
474
FTUS41 KAKQ 121120
TAFPHF
TAF
KPHF 121120Z 1212/1312 36004KT P6SM BKN250
     FM121500 09004KT P6SM OVC100
     FM122000 12006KT 3SM -SN BR OVC025
      TEMPO 1222/1301 1/2SM SN FZFG OVC015
     FM130100 21005KT P6SM OVC030
     FM130900 30012G20KT P6SM SCT040=

USA.gov is the U.S. government's official web portal to all federal, state and local government web resources and services.